Time;durP1;ratioP1;P1;durP2;ratioP2;P2;SDS_P1;SDS_P2;PMS_P1;PMS_P2;Temp;Humidity;BMP_temperature;BMP_pressure;BME280_temperature;BME280_humidity;BME280_pressure;Samples;Min_cycle;Max_cycle;Signal;HPM_P1;HPM_P2
2022/03/12 00:01:05;;;;;;;;;;;7.90;99.90;;;;;;5054148;28;19908;-77
2022/03/12 00:03:32;;;;;;;;;;;7.80;99.90;;;;;;5052655;28;19913;-77
2022/03/12 00:06:00;;;;;;;;;;;7.80;99.90;;;;;;5053990;28;19954;-78
2022/03/12 00:08:51;;;;;;;;;;;7.70;99.90;;;;;;5052723;28;19908;-78
2022/03/12 00:11:14;;;;;;;;;;;7.70;99.90;;;;;;5053429;28;19909;-77
2022/03/12 00:13:40;;;;;;;;;;;7.60;99.90;;;;;;5053589;28;19932;-78
2022/03/12 00:16:10;;;;;;;;;;;7.70;99.90;;;;;;5053789;28;20436;-78
2022/03/12 00:18:37;;;;;;;;;;;7.70;99.90;;;;;;5054054;28;19916;-77
2022/03/12 00:21:04;;;;;;;;;;;7.70;99.90;;;;;;5053753;28;19909;-78
2022/03/12 00:23:30;;;;;;;;;;;7.70;99.90;;;;;;5053650;28;19960;-78
2022/03/12 00:25:56;;;;;;;;;;;7.70;99.90;;;;;;5054124;28;19909;-78
2022/03/12 00:28:22;;;;;;;;;;;7.70;99.90;;;;;;5054117;28;19909;-77
2022/03/12 00:30:50;;;;;;;;;;;7.70;99.90;;;;;;5053736;28;20371;-77
2022/03/12 00:33:18;;;;;;;;;;;7.60;99.90;;;;;;5052363;28;19909;-78
2022/03/12 00:35:48;;;;;;;;;;;7.50;99.90;;;;;;5053644;28;19909;-78
2022/03/12 00:38:14;;;;;;;;;;;7.70;99.90;;;;;;5053352;28;20430;-78
2022/03/12 00:40:40;;;;;;;;;;;7.60;99.90;;;;;;5052298;28;19909;-78
2022/03/12 00:43:06;;;;;;;;;;;7.70;99.90;;;;;;5053428;28;19966;-78
2022/03/12 00:45:32;;;;;;;;;;;7.70;99.90;;;;;;5053516;28;19912;-77
2022/03/12 00:47:57;;;;;;;;;;;7.70;99.90;;;;;;5054011;28;20250;-78
2022/03/12 00:50:23;;;;;;;;;;;7.60;99.90;;;;;;5052198;28;19909;-78
2022/03/12 00:52:48;;;;;;;;;;;7.70;99.90;;;;;;5053611;28;19954;-78
2022/03/12 00:55:14;;;;;;;;;;;7.70;99.90;;;;;;5052081;28;19944;-78
2022/03/12 00:57:39;;;;;;;;;;;7.70;99.90;;;;;;5053456;28;19915;-77
2022/03/12 01:00:11;;;;;;;;;;;7.70;99.90;;;;;;5053565;28;19999;-77
2022/03/12 01:02:36;;;;;;;;;;;7.60;99.90;;;;;;5053391;28;19955;-77
2022/03/12 01:05:03;;;;;;;;;;;7.70;99.90;;;;;;5053308;28;19964;-77
2022/03/12 01:07:28;;;;;;;;;;;7.70;99.90;;;;;;5053394;28;19908;-77
2022/03/12 01:09:54;;;;;;;;;;;7.70;99.90;;;;;;5053301;28;19970;-77
2022/03/12 01:12:20;;;;;;;;;;;7.60;99.90;;;;;;5053337;28;20004;-78
2022/03/12 01:14:45;;;;;;;;;;;7.60;99.90;;;;;;5053247;28;19992;-78
2022/03/12 01:17:11;;;;;;;;;;;7.50;99.90;;;;;;5053223;28;19959;-78
2022/03/12 01:19:37;;;;;;;;;;;7.50;99.90;;;;;;5053412;28;19944;-77
2022/03/12 01:22:03;;;;;;;;;;;7.50;99.90;;;;;;5053351;28;20424;-78
2022/03/12 01:24:29;;;;;;;;;;;7.50;99.90;;;;;;5053105;28;20003;-77
2022/03/12 01:26:55;;;;;;;;;;;7.50;99.90;;;;;;5056057;28;20388;-78
2022/03/12 01:29:21;;;;;;;;;;;7.50;99.90;;;;;;5056878;28;20346;-77
2022/03/12 01:31:46;;;;;;;;;;;7.50;99.90;;;;;;5055617;28;19935;-77
2022/03/12 01:34:12;;;;;;;;;;;7.50;99.90;;;;;;5056825;28;19932;-77
2022/03/12 01:36:37;;;;;;;;;;;7.40;99.90;;;;;;5056811;28;20284;-78
2022/03/12 01:39:03;;;;;;;;;;;7.40;99.90;;;;;;5056360;28;19988;-77
2022/03/12 01:41:30;;;;;;;;;;;7.40;99.90;;;;;;5055338;28;19908;-77
2022/03/12 01:43:57;;;;;;;;;;;7.50;99.90;;;;;;5056769;28;19913;-77
2022/03/12 01:46:30;;;;;;;;;;;7.40;99.90;;;;;;5056593;28;19909;-77
2022/03/12 01:48:59;;;;;;;;;;;7.40;99.90;;;;;;5056631;28;19912;-78
2022/03/12 01:51:29;;;;;;;;;;;7.50;99.90;;;;;;5056571;28;19909;-77
2022/03/12 01:53:55;;;;;;;;;;;7.40;99.90;;;;;;5056415;28;19970;-77
2022/03/12 01:56:25;;;;;;;;;;;7.40;99.90;;;;;;5056441;28;19917;-77
2022/03/12 01:58:50;;;;;;;;;;;7.40;99.90;;;;;;5056576;28;20422;-77
2022/03/12 02:01:18;;;;;;;;;;;7.50;99.90;;;;;;5056376;28;19909;-77
2022/03/12 02:03:46;;;;;;;;;;;7.40;99.90;;;;;;5056209;28;19916;-77
2022/03/12 02:06:15;;;;;;;;;;;7.40;99.90;;;;;;5056247;28;20307;-77
2022/03/12 02:08:41;;;;;;;;;;;7.40;99.90;;;;;;5056194;28;19913;-77
2022/03/12 02:11:07;;;;;;;;;;;7.20;99.90;;;;;;5054843;28;19954;-77
2022/03/12 02:13:35;;;;;;;;;;;7.10;99.90;;;;;;5056265;28;19955;-77
2022/03/12 02:16:07;;;;;;;;;;;7.20;99.90;;;;;;5056073;28;19967;-77
2022/03/12 02:18:32;;;;;;;;;;;7.40;99.90;;;;;;5055980;28;19916;-77
2022/03/12 02:20:58;;;;;;;;;;;7.40;99.90;;;;;;5055983;28;19909;-77
2022/03/12 02:23:24;;;;;;;;;;;7.50;99.90;;;;;;5055892;28;19962;-77
2022/03/12 02:25:50;;;;;;;;;;;7.50;99.90;;;;;;5054606;28;20144;-77
2022/03/12 02:28:17;;;;;;;;;;;7.50;99.90;;;;;;5054537;28;19908;-77
2022/03/12 02:30:51;;;;;;;;;;;7.50;99.90;;;;;;5055740;28;19915;-77
2022/03/12 02:33:26;;;;;;;;;;;7.50;99.90;;;;;;5055870;28;19948;-77
2022/03/12 02:35:53;;;;;;;;;;;7.40;99.90;;;;;;5055717;28;20288;-77
2022/03/12 02:38:19;;;;;;;;;;;7.40;99.90;;;;;;5054776;28;20367;-77
2022/03/12 02:40:47;;;;;;;;;;;7.20;99.90;;;;;;5055614;28;20004;-77
2022/03/12 02:43:13;;;;;;;;;;;7.20;99.90;;;;;;5055461;28;19913;-77
2022/03/12 02:45:39;;;;;;;;;;;7.20;99.90;;;;;;5054184;28;19915;-77
2022/03/12 02:48:10;;;;;;;;;;;7.20;99.90;;;;;;5054449;28;19959;-77
2022/03/12 02:50:37;;;;;;;;;;;7.10;99.90;;;;;;5055598;28;19912;-77
2022/03/12 02:53:03;;;;;;;;;;;7.20;99.90;;;;;;5055474;28;19954;-77
2022/03/12 02:55:31;;;;;;;;;;;7.10;99.90;;;;;;5055275;28;20380;-77
2022/03/12 02:57:57;;;;;;;;;;;7.20;99.90;;;;;;5055301;28;19909;-77
2022/03/12 03:00:23;;;;;;;;;;;7.20;99.90;;;;;;5055275;28;19937;-77
2022/03/12 03:02:56;;;;;;;;;;;7.30;99.90;;;;;;5055185;28;19991;-76
2022/03/12 03:08:05;;;;;;;;;;;7.10;99.90;;;;;;5054884;28;20287;-77
2022/03/12 03:10:34;;;;;;;;;;;7.10;99.90;;;;;;5054981;28;19913;-77
2022/03/12 03:13:21;;;;;;;;;;;7.00;99.90;;;;;;5054975;28;19913;-77
2022/03/12 03:15:51;;;;;;;;;;;6.80;99.90;;;;;;5047877;28;19990;-77
2022/03/12 03:18:22;;;;;;;;;;;6.80;99.90;;;;;;5054874;28;19908;-77
2022/03/12 03:20:48;;;;;;;;;;;6.90;99.90;;;;;;5054965;28;19909;-77
2022/03/12 03:23:14;;;;;;;;;;;6.90;99.90;;;;;;5054774;28;19919;-77
2022/03/12 03:25:39;;;;;;;;;;;6.90;99.90;;;;;;5054746;28;19909;-77
2022/03/12 03:28:06;;;;;;;;;;;6.90;99.90;;;;;;5054713;28;19916;-77
2022/03/12 03:30:38;;;;;;;;;;;6.90;99.90;;;;;;5054702;28;19908;-77
2022/03/12 03:33:08;;;;;;;;;;;6.90;99.90;;;;;;5054586;28;20311;-77
2022/03/12 03:35:33;;;;;;;;;;;7.00;99.90;;;;;;5054760;28;19916;-77
2022/03/12 03:37:59;;;;;;;;;;;7.00;99.90;;;;;;5053050;28;19921;-77
2022/03/12 03:40:25;;;;;;;;;;;7.10;99.90;;;;;;5054462;28;19912;-77
2022/03/12 03:42:51;;;;;;;;;;;7.10;99.90;;;;;;5054333;28;20404;-77
2022/03/12 03:45:21;;;;;;;;;;;7.10;99.90;;;;;;5054344;28;20392;-77
2022/03/12 03:47:46;;;;;;;;;;;7.20;99.90;;;;;;5054305;28;20003;-77
2022/03/12 03:50:12;;;;;;;;;;;7.20;99.90;;;;;;5053637;28;19951;-77
2022/03/12 03:52:37;;;;;;;;;;;7.30;99.90;;;;;;5054322;28;20347;-77
2022/03/12 03:55:03;;;;;;;;;;;7.30;99.90;;;;;;5054137;28;19909;-77
2022/03/12 03:57:29;;;;;;;;;;;7.30;99.90;;;;;;5054204;28;20003;-77
2022/03/12 03:59:54;;;;;;;;;;;7.30;99.90;;;;;;5054077;28;20281;-77
2022/03/12 04:02:20;;;;;;;;;;;7.30;99.90;;;;;;5054060;28;19952;-77
2022/03/12 04:04:48;;;;;;;;;;;7.30;99.90;;;;;;5054150;28;19913;-77
2022/03/12 04:07:14;;;;;;;;;;;7.30;99.90;;;;;;5054023;28;19909;-77
2022/03/12 04:09:40;;;;;;;;;;;7.30;99.90;;;;;;5054142;28;19915;-77
2022/03/12 04:12:06;;;;;;;;;;;7.20;99.90;;;;;;5054187;28;19909;-77
2022/03/12 04:14:31;;;;;;;;;;;7.20;99.90;;;;;;5053821;28;19909;-77
2022/03/12 04:16:58;;;;;;;;;;;7.20;99.90;;;;;;5053883;28;19915;-77
2022/03/12 04:19:27;;;;;;;;;;;7.20;99.90;;;;;;5053836;28;19993;-77
2022/03/12 04:21:55;;;;;;;;;;;7.20;99.90;;;;;;5053902;28;19916;-77
2022/03/12 04:24:22;;;;;;;;;;;7.20;99.90;;;;;;5053634;28;19947;-77
2022/03/12 04:26:48;;;;;;;;;;;7.20;99.90;;;;;;5053710;28;20361;-77
2022/03/12 04:29:13;;;;;;;;;;;7.20;99.90;;;;;;5053640;28;19916;-77
2022/03/12 04:31:39;;;;;;;;;;;7.10;99.90;;;;;;5053883;28;20004;-77
2022/03/12 04:34:05;;;;;;;;;;;7.10;99.90;;;;;;5052375;28;19963;-77
2022/03/12 04:36:34;;;;;;;;;;;7.00;99.90;;;;;;5053576;28;20292;-77
2022/03/12 04:39:00;;;;;;;;;;;7.00;99.90;;;;;;5053145;28;19928;-77
2022/03/12 04:41:30;;;;;;;;;;;6.90;99.90;;;;;;5053516;28;19908;-77
2022/03/12 04:43:56;;;;;;;;;;;6.90;99.90;;;;;;5052213;28;19913;-77
2022/03/12 04:46:21;;;;;;;;;;;6.90;99.90;;;;;;5053504;28;19916;-77
2022/03/12 04:48:47;;;;;;;;;;;6.90;99.90;;;;;;5053655;28;19909;-77
2022/03/12 04:51:13;;;;;;;;;;;6.90;99.90;;;;;;5053470;28;19909;-77
2022/03/12 04:53:39;;;;;;;;;;;6.80;99.90;;;;;;5053807;28;20364;-77
2022/03/12 04:56:05;;;;;;;;;;;6.80;99.90;;;;;;5053748;28;19909;-77
2022/03/12 04:58:30;;;;;;;;;;;6.80;99.90;;;;;;5053692;28;19944;-77
2022/03/12 05:00:56;;;;;;;;;;;6.80;99.90;;;;;;5053216;28;19940;-77
2022/03/12 05:03:23;;;;;;;;;;;6.70;99.90;;;;;;5057359;28;20262;-77
2022/03/12 05:05:49;;;;;;;;;;;6.70;99.90;;;;;;5057571;28;19908;-77
2022/03/12 05:08:17;;;;;;;;;;;6.80;99.90;;;;;;5056032;28;20383;-77
2022/03/12 05:10:44;;;;;;;;;;;6.80;99.90;;;;;;5057286;28;19909;-77
2022/03/12 05:13:12;;;;;;;;;;;6.70;99.90;;;;;;5057189;28;19909;-77
2022/03/12 05:15:38;;;;;;;;;;;6.80;99.90;;;;;;5057569;28;19935;-77
2022/03/12 05:18:07;;;;;;;;;;;6.70;99.90;;;;;;5057471;28;19912;-78
2022/03/12 05:20:34;;;;;;;;;;;6.70;99.90;;;;;;5055834;28;19932;-77
2022/03/12 05:23:00;;;;;;;;;;;6.70;99.90;;;;;;5056003;28;20313;-77
2022/03/12 05:25:27;;;;;;;;;;;6.70;99.90;;;;;;5057014;28;20284;-77
2022/03/12 05:27:53;;;;;;;;;;;6.70;99.90;;;;;;5057260;28;19916;-77
2022/03/12 05:30:20;;;;;;;;;;;6.80;99.90;;;;;;5057196;28;19909;-76
2022/03/12 05:32:46;;;;;;;;;;;6.90;99.90;;;;;;5056919;28;19909;-77
2022/03/12 05:35:12;;;;;;;;;;;6.80;99.90;;;;;;5056808;28;20257;-77
2022/03/12 05:37:38;;;;;;;;;;;6.80;99.90;;;;;;5056560;28;19974;-77
2022/03/12 05:40:09;;;;;;;;;;;6.80;99.90;;;;;;5057023;28;19915;-77
2022/03/12 05:42:35;;;;;;;;;;;6.80;99.90;;;;;;5055440;28;20333;-77
2022/03/12 05:45:03;;;;;;;;;;;6.80;99.90;;;;;;5056577;28;19967;-77
2022/03/12 05:47:34;;;;;;;;;;;6.80;99.90;;;;;;5056761;28;19939;-77
2022/03/12 05:50:00;;;;;;;;;;;6.90;99.90;;;;;;5056903;28;19909;-77
2022/03/12 05:52:26;;;;;;;;;;;7.10;99.90;;;;;;5056635;28;19975;-77
2022/03/12 05:54:52;;;;;;;;;;;7.00;99.90;;;;;;5056424;28;20280;-77
2022/03/12 05:57:17;;;;;;;;;;;7.00;99.90;;;;;;5056449;28;19909;-77
2022/03/12 05:59:45;;;;;;;;;;;6.80;99.90;;;;;;5056517;28;19908;-77
2022/03/12 06:02:11;;;;;;;;;;;6.90;99.90;;;;;;5056318;28;19913;-77
2022/03/12 06:04:36;;;;;;;;;;;6.80;99.90;;;;;;5056222;28;20007;-76
2022/03/12 06:07:02;;;;;;;;;;;6.80;99.90;;;;;;5054995;28;19916;-77
2022/03/12 06:09:28;;;;;;;;;;;6.80;99.90;;;;;;5056221;28;20437;-77
2022/03/12 06:11:54;;;;;;;;;;;6.70;99.90;;;;;;5055565;28;19909;-76
2022/03/12 06:14:21;;;;;;;;;;;6.70;99.90;;;;;;5055876;28;19909;-77
2022/03/12 06:16:50;;;;;;;;;;;6.70;99.90;;;;;;5056085;28;19909;-76
2022/03/12 06:19:21;;;;;;;;;;;6.70;99.90;;;;;;5055935;28;20439;-76
2022/03/12 06:21:47;;;;;;;;;;;6.60;99.90;;;;;;5055928;28;19992;-76
2022/03/12 06:24:14;;;;;;;;;;;6.60;99.90;;;;;;5055947;28;20276;-77
2022/03/12 06:26:41;;;;;;;;;;;6.60;99.90;;;;;;5055885;28;20432;-77
2022/03/12 06:29:12;;;;;;;;;;;6.50;99.90;;;;;;5055832;28;19951;-76
2022/03/12 06:31:38;;;;;;;;;;;6.40;99.90;;;;;;5054225;28;20380;-76
2022/03/12 06:34:05;;;;;;;;;;;6.40;99.90;;;;;;5055729;28;19909;-76
2022/03/12 06:36:30;;;;;;;;;;;6.30;99.90;;;;;;5055789;28;19913;-76
2022/03/12 06:38:57;;;;;;;;;;;6.30;99.90;;;;;;5055319;28;19927;-77
2022/03/12 06:41:23;;;;;;;;;;;6.30;99.90;;;;;;5055703;28;19916;-76
2022/03/12 06:43:50;;;;;;;;;;;6.40;99.90;;;;;;5055536;28;20318;-76
2022/03/12 06:46:16;;;;;;;;;;;6.40;99.90;;;;;;5055560;28;19909;-77
2022/03/12 06:48:42;;;;;;;;;;;6.40;99.90;;;;;;5055571;28;20038;-76
2022/03/12 06:51:10;;;;;;;;;;;6.40;99.90;;;;;;5055487;28;19913;-76
2022/03/12 06:53:36;;;;;;;;;;;6.30;99.90;;;;;;5055371;28;20264;-76
2022/03/12 06:56:02;;;;;;;;;;;6.40;99.90;;;;;;5055356;28;19909;-76
2022/03/12 06:58:29;;;;;;;;;;;6.40;99.90;;;;;;5055354;28;19916;-77
2022/03/12 07:00:55;;;;;;;;;;;6.40;99.90;;;;;;5055236;28;20265;-77
2022/03/12 07:03:21;;;;;;;;;;;6.60;99.90;;;;;;5053890;28;19916;-77
2022/03/12 07:05:46;;;;;;;;;;;7.00;99.90;;;;;;5055210;28;19955;-77
2022/03/12 07:08:12;;;;;;;;;;;7.20;99.90;;;;;;5055256;28;19995;-77
2022/03/12 07:10:37;;;;;;;;;;;7.50;99.90;;;;;;5055183;28;19909;-77
2022/03/12 07:13:03;;;;;;;;;;;7.70;99.90;;;;;;5055013;28;19909;-77
2022/03/12 07:15:29;;;;;;;;;;;7.70;99.90;;;;;;5054977;28;19909;-77
2022/03/12 07:17:55;;;;;;;;;;;7.80;99.90;;;;;;5053612;28;19932;-77
2022/03/12 07:20:20;;;;;;;;;;;8.00;99.90;;;;;;5054860;28;19912;-77
2022/03/12 07:22:46;;;;;;;;;;;8.10;99.90;;;;;;5054856;28;19916;-77
2022/03/12 07:25:13;;;;;;;;;;;8.40;99.90;;;;;;5054486;28;19919;-77
2022/03/12 07:27:39;;;;;;;;;;;8.60;99.90;;;;;;5054747;28;20357;-77
2022/03/12 07:30:05;;;;;;;;;;;8.50;99.90;;;;;;5054634;28;19909;-77
2022/03/12 07:32:31;;;;;;;;;;;8.40;99.90;;;;;;5054523;28;20463;-77
2022/03/12 07:34:57;;;;;;;;;;;8.70;99.90;;;;;;5054989;28;19936;-77
2022/03/12 07:37:22;;;;;;;;;;;8.80;99.90;;;;;;5053105;28;19959;-77
2022/03/12 07:39:48;;;;;;;;;;;8.90;99.90;;;;;;5054663;28;19909;-77
2022/03/12 07:42:14;;;;;;;;;;;8.80;99.90;;;;;;5054185;28;20424;-77
2022/03/12 07:44:40;;;;;;;;;;;9.00;99.90;;;;;;5054405;28;19936;-77
2022/03/12 07:47:06;;;;;;;;;;;8.90;99.90;;;;;;5054513;28;19913;-77
2022/03/12 07:49:32;;;;;;;;;;;9.30;99.90;;;;;;5054416;28;19909;-77
2022/03/12 07:51:58;;;;;;;;;;;9.40;99.90;;;;;;5054308;28;19909;-77
2022/03/12 07:54:23;;;;;;;;;;;9.60;99.90;;;;;;5053987;28;19975;-77
2022/03/12 07:56:49;;;;;;;;;;;10.30;99.90;;;;;;5054184;28;19947;-77
2022/03/12 07:59:14;;;;;;;;;;;10.70;99.90;;;;;;5054216;28;20258;-77
2022/03/12 08:01:40;;;;;;;;;;;11.50;99.90;;;;;;5054157;28;20445;-77
2022/03/12 08:04:06;;;;;;;;;;;12.10;99.90;;;;;;5053991;28;19913;-77
2022/03/12 08:06:33;;;;;;;;;;;12.60;99.90;;;;;;5054054;28;20302;-77
2022/03/12 08:08:59;;;;;;;;;;;13.10;99.90;;;;;;5054085;28;19909;-78
2022/03/12 08:11:25;;;;;;;;;;;13.50;99.90;;;;;;5054036;28;19976;-77
2022/03/12 08:13:51;;;;;;;;;;;13.30;99.90;;;;;;5053942;28;19908;-78
2022/03/12 08:16:17;;;;;;;;;;;13.80;99.90;;;;;;5053862;28;19954;-77
2022/03/12 08:18:43;;;;;;;;;;;14.20;99.90;;;;;;5053988;28;19908;-78
2022/03/12 08:21:09;;;;;;;;;;;14.10;99.90;;;;;;5053922;28;20338;-78
2022/03/12 08:23:35;;;;;;;;;;;14.60;99.90;;;;;;5053726;28;19913;-78
2022/03/12 08:26:01;;;;;;;;;;;15.30;99.90;;;;;;5052538;28;19913;-78
2022/03/12 08:28:27;;;;;;;;;;;15.30;99.90;;;;;;5053745;28;19908;-78
2022/03/12 08:30:53;;;;;;;;;;;14.50;99.90;;;;;;5053733;28;19959;-78
2022/03/12 08:33:20;;;;;;;;;;;15.30;99.90;;;;;;5053698;28;19909;-78
2022/03/12 08:35:46;;;;;;;;;;;15.70;99.90;;;;;;5053075;28;20306;-78
2022/03/12 08:38:12;;;;;;;;;;;15.80;99.90;;;;;;5053581;28;20003;-78
2022/03/12 08:40:37;;;;;;;;;;;15.70;99.90;;;;;;5053802;28;19997;-78
2022/03/12 08:43:03;;;;;;;;;;;16.40;99.90;;;;;;5053530;28;20005;-78
2022/03/12 08:45:29;;;;;;;;;;;16.50;99.90;;;;;;5053945;28;20280;-78
2022/03/12 08:47:55;;;;;;;;;;;16.50;99.90;;;;;;5053510;28;19913;-78
2022/03/12 08:50:21;;;;;;;;;;;16.20;99.90;;;;;;5053572;28;20280;-78
2022/03/12 08:52:47;;;;;;;;;;;15.60;99.90;;;;;;5053537;28;19913;-78
2022/03/12 08:55:12;;;;;;;;;;;16.10;99.90;;;;;;5053379;28;19908;-78
2022/03/12 08:57:38;;;;;;;;;;;16.50;99.90;;;;;;5053435;28;20003;-78
2022/03/12 09:00:05;;;;;;;;;;;17.20;99.90;;;;;;5052156;28;19959;-78
2022/03/12 09:02:35;;;;;;;;;;;17.00;99.90;;;;;;5053621;28;19913;-78
2022/03/12 09:05:04;;;;;;;;;;;17.50;99.90;;;;;;5053420;28;19917;-78
2022/03/12 09:07:30;;;;;;;;;;;15.50;99.90;;;;;;5053620;28;19991;-78
2022/03/12 09:09:56;;;;;;;;;;;16.00;99.90;;;;;;5053358;28;19915;-78
2022/03/12 09:12:22;;;;;;;;;;;17.00;99.90;;;;;;5052046;28;19916;-78
2022/03/12 09:14:48;;;;;;;;;;;16.80;99.90;;;;;;5053254;28;19909;-78
2022/03/12 09:17:14;;;;;;;;;;;17.00;99.90;;;;;;5053316;28;19916;-78
2022/03/12 09:19:39;;;;;;;;;;;17.80;99.90;;;;;;5053268;28;19909;-78
2022/03/12 09:22:05;;;;;;;;;;;17.70;99.90;;;;;;5053254;28;19920;-78
2022/03/12 09:24:30;;;;;;;;;;;17.50;99.90;;;;;;5052819;28;19921;-78
2022/03/12 09:26:56;;;;;;;;;;;18.40;99.90;;;;;;5053385;28;19909;-78
2022/03/12 09:29:22;;;;;;;;;;;18.90;99.90;;;;;;5053154;28;19909;-78
2022/03/12 09:31:48;;;;;;;;;;;19.20;99.90;;;;;;5051821;28;19909;-78
2022/03/12 09:34:14;;;;;;;;;;;20.00;98.90;;;;;;5053083;28;19909;-78
2022/03/12 09:36:40;;;;;;;;;;;19.20;98.40;;;;;;5053082;28;19909;-78
2022/03/12 09:39:06;;;;;;;;;;;19.50;97.70;;;;;;5052664;28;19928;-79
2022/03/12 09:41:38;;;;;;;;;;;21.20;96.70;;;;;;5053032;28;19915;-78
2022/03/12 09:44:04;;;;;;;;;;;21.60;94.20;;;;;;5052937;28;19920;-78
2022/03/12 09:46:30;;;;;;;;;;;22.00;92.80;;;;;;5053602;28;19999;-78
2022/03/12 09:48:55;;;;;;;;;;;21.10;93.10;;;;;;5056629;28;19944;-79
2022/03/12 09:51:22;;;;;;;;;;;21.40;93.40;;;;;;5056542;28;20406;-79
2022/03/12 09:53:48;;;;;;;;;;;20.70;92.10;;;;;;5056452;28;19992;-78
2022/03/12 09:56:14;;;;;;;;;;;20.20;92.80;;;;;;5056536;28;19944;-78
2022/03/12 09:58:41;;;;;;;;;;;20.20;92.70;;;;;;5055128;28;19916;-79
2022/03/12 10:01:06;;;;;;;;;;;20.30;91.10;;;;;;5056373;28;19996;-79
2022/03/12 10:03:32;;;;;;;;;;;19.80;90.60;;;;;;5056472;28;19959;-78
2022/03/12 10:05:58;;;;;;;;;;;20.40;92.00;;;;;;5029900;28;20400;-78
2022/03/12 10:08:24;;;;;;;;;;;21.90;90.90;;;;;;5055766;28;19920;-79
2022/03/12 10:10:50;;;;;;;;;;;21.90;88.50;;;;;;5055910;28;20007;-79
2022/03/12 10:13:15;;;;;;;;;;;23.40;84.60;;;;;;5055630;28;19932;-79
2022/03/12 10:15:42;;;;;;;;;;;22.40;80.40;;;;;;5055319;28;20376;-78
2022/03/12 10:18:08;;;;;;;;;;;21.60;84.30;;;;;;5055612;28;20360;-78
2022/03/12 10:20:34;;;;;;;;;;;20.70;86.30;;;;;;5055505;28;19916;-79
2022/03/12 10:22:59;;;;;;;;;;;20.40;88.30;;;;;;5054402;28;19909;-79
2022/03/12 10:25:25;;;;;;;;;;;22.20;84.60;;;;;;5053827;28;20292;-79
2022/03/12 10:27:51;;;;;;;;;;;22.50;80.10;;;;;;5054351;28;19919;-79
2022/03/12 10:30:17;;;;;;;;;;;24.90;78.90;;;;;;5055433;28;19909;-79
2022/03/12 10:32:47;;;;;;;;;;;23.70;73.00;;;;;;5053942;28;19909;-79
2022/03/12 10:35:14;;;;;;;;;;;24.60;74.00;;;;;;5055290;28;19908;-79
2022/03/12 10:37:40;;;;;;;;;;;23.10;69.70;;;;;;5055107;28;20432;-79
2022/03/12 10:40:11;;;;;;;;;;;22.90;73.30;;;;;;5054072;28;19912;-79
2022/03/12 10:42:38;;;;;;;;;;;20.80;71.60;;;;;;5055325;28;19999;-79
2022/03/12 10:45:08;;;;;;;;;;;21.00;76.00;;;;;;5048153;28;19963;-78
2022/03/12 10:47:39;;;;;;;;;;;17.60;80.50;;;;;;5035375;28;19916;-78
2022/03/12 10:50:06;;;;;;;;;;;18.20;82.30;;;;;;5035234;28;19959;-78
2022/03/12 10:52:35;;;;;;;;;;;18.20;85.40;;;;;;5034764;28;19916;-78
2022/03/12 10:55:10;;;;;;;;;;;18.80;83.10;;;;;;5033365;28;20382;-78
2022/03/12 10:57:36;;;;;;;;;;;19.70;80.40;;;;;;5033524;28;19916;-79
2022/03/12 11:00:01;;;;;;;;;;;21.30;75.70;;;;;;5034415;28;19909;-79
2022/03/12 11:02:27;;;;;;;;;;;23.20;74.10;;;;;;5035038;28;20405;-79
2022/03/12 11:04:53;;;;;;;;;;;22.80;71.20;;;;;;5034749;28;20005;-79
2022/03/12 11:07:25;;;;;;;;;;;25.40;68.60;;;;;;5035323;28;19967;-79
2022/03/12 11:09:52;;;;;;;;;;;23.00;68.10;;;;;;5035378;28;19913;-79
2022/03/12 11:12:29;;;;;;;;;;;24.90;67.10;;;;;;5035089;28;19916;-79
2022/03/12 11:15:14;;;;;;;;;;;22.60;62.40;;;;;;5033508;28;19909;-78
2022/03/12 11:17:47;;;;;;;;;;;20.90;69.40;;;;;;5034991;28;19909;-78
2022/03/12 11:20:17;;;;;;;;;;;21.70;67.80;;;;;;5034960;28;19909;-78
2022/03/12 11:22:43;;;;;;;;;;;23.00;71.20;;;;;;5033633;28;19935;-79
2022/03/12 11:25:13;;;;;;;;;;;24.50;66.50;;;;;;5034783;28;20036;-78
2022/03/12 11:27:38;;;;;;;;;;;22.30;68.60;;;;;;5034845;28;20352;-79
2022/03/12 11:30:08;;;;;;;;;;;23.50;67.20;;;;;;5034831;28;19963;-79
2022/03/12 11:32:35;;;;;;;;;;;22.50;65.20;;;;;;5034727;28;19916;-79
2022/03/12 11:35:06;;;;;;;;;;;23.00;67.40;;;;;;5034644;28;20369;-79
2022/03/12 11:37:34;;;;;;;;;;;26.00;61.90;;;;;;5033058;28;20370;-78
2022/03/12 11:39:59;;;;;;;;;;;23.20;63.50;;;;;;5033310;28;19909;-79
2022/03/12 11:42:26;;;;;;;;;;;23.80;61.90;;;;;;5034540;28;19916;-78
2022/03/12 11:44:56;;;;;;;;;;;23.90;63.00;;;;;;5034390;28;20067;-79
2022/03/12 11:47:23;;;;;;;;;;;23.00;59.90;;;;;;5034831;28;19984;-78
2022/03/12 11:49:49;;;;;;;;;;;22.20;66.90;;;;;;5033081;28;20002;-79
2022/03/12 11:52:16;;;;;;;;;;;24.80;61.70;;;;;;5034323;28;20389;-79
2022/03/12 11:54:45;;;;;;;;;;;24.30;61.80;;;;;;5032953;28;20405;-78
2022/03/12 11:57:16;;;;;;;;;;;20.50;65.40;;;;;;5034242;28;19913;-79
2022/03/12 11:59:41;;;;;;;;;;;24.80;63.00;;;;;;5034876;28;19920;-79
2022/03/12 12:02:19;;;;;;;;;;;24.50;63.00;;;;;;5034317;28;19991;-79
2022/03/12 12:04:45;;;;;;;;;;;21.90;60.90;;;;;;5032850;28;20366;-78
2022/03/12 12:07:11;;;;;;;;;;;19.40;67.90;;;;;;5034066;28;19913;-78
2022/03/12 12:09:37;;;;;;;;;;;18.00;74.80;;;;;;5032455;28;19916;-78
2022/03/12 12:12:06;;;;;;;;;;;19.60;73.10;;;;;;5033701;28;20250;-79
2022/03/12 12:14:34;;;;;;;;;;;18.50;71.70;;;;;;5033983;28;20008;-78
2022/03/12 12:17:00;;;;;;;;;;;17.40;74.20;;;;;;5034006;28;19967;-78
2022/03/12 12:19:26;;;;;;;;;;;16.80;77.50;;;;;;5034154;28;19913;-78
2022/03/12 12:21:52;;;;;;;;;;;17.60;78.10;;;;;;5034093;28;19940;-78
2022/03/12 12:24:29;;;;;;;;;;;16.90;78.20;;;;;;5033806;28;19949;-78
2022/03/12 12:26:58;;;;;;;;;;;20.90;71.20;;;;;;5033949;28;19916;-78
2022/03/12 12:29:54;;;;;;;;;;;23.90;65.50;;;;;;5034107;28;19940;-78
2022/03/12 12:32:24;;;;;;;;;;;21.10;66.60;;;;;;5016247;28;19909;-79
2022/03/12 12:34:58;;;;;;;;;;;25.30;59.60;;;;;;5033830;28;20289;-79
2022/03/12 12:37:39;;;;;;;;;;;27.20;56.30;;;;;;5033549;28;19924;-78
2022/03/12 12:40:16;;;;;;;;;;;22.10;56.90;;;;;;5033806;28;19991;-78
2022/03/12 12:42:42;;;;;;;;;;;23.30;58.30;;;;;;5033704;28;19909;-79
2022/03/12 12:45:16;;;;;;;;;;;25.00;55.30;;;;;;5033575;28;19956;-78
2022/03/12 12:47:42;;;;;;;;;;;25.60;53.70;;;;;;5033595;28;19913;-78
2022/03/12 12:50:24;;;;;;;;;;;26.80;52.80;;;;;;5033809;28;19909;-79
2022/03/12 12:53:08;;;;;;;;;;;25.80;52.50;;;;;;5033730;28;19913;-79
2022/03/12 12:55:34;;;;;;;;;;;26.80;51.50;;;;;;5033533;28;19916;-78
2022/03/12 12:58:00;;;;;;;;;;;27.40;51.30;;;;;;5033743;28;19909;-79
2022/03/12 13:00:35;;;;;;;;;;;26.60;51.10;;;;;;5033523;28;19916;-79
2022/03/12 13:03:01;;;;;;;;;;;27.40;49.50;;;;;;5033634;28;20281;-80
2022/03/12 13:05:48;;;;;;;;;;;28.70;50.40;;;;;;5032082;28;20336;-79
2022/03/12 13:08:14;;;;;;;;;;;28.70;46.50;;;;;;5033607;28;20424;-79
2022/03/12 13:10:41;;;;;;;;;;;27.60;49.30;;;;;;5033371;28;19913;-78
2022/03/12 13:13:08;;;;;;;;;;;27.50;47.50;;;;;;5033496;28;19909;-78
2022/03/12 13:15:37;;;;;;;;;;;27.40;47.40;;;;;;5033313;28;19931;-77
2022/03/12 13:18:13;;;;;;;;;;;25.30;47.40;;;;;;5033316;28;20280;-78
2022/03/12 13:20:43;;;;;;;;;;;26.50;49.40;;;;;;5033464;28;20362;-78
2022/03/12 13:23:09;;;;;;;;;;;26.20;46.90;;;;;;5036560;28;19988;-78
2022/03/12 13:25:49;;;;;;;;;;;26.00;48.10;;;;;;5037010;28;19913;-78
2022/03/12 13:28:34;;;;;;;;;;;25.80;48.70;;;;;;5037074;28;19925;-78
2022/03/12 13:31:01;;;;;;;;;;;24.10;48.00;;;;;;5037235;28;19913;-79
2022/03/12 13:33:26;;;;;;;;;;;25.00;49.10;;;;;;5037061;28;19913;-78
2022/03/12 13:35:52;;;;;;;;;;;25.40;48.90;;;;;;5036975;28;20005;-78
2022/03/12 13:38:21;;;;;;;;;;;24.10;49.30;;;;;;5036690;28;19921;-78
2022/03/12 13:40:47;;;;;;;;;;;26.00;50.10;;;;;;5037329;28;20416;-79
2022/03/12 13:43:14;;;;;;;;;;;24.50;48.50;;;;;;5036884;28;19909;-79
2022/03/12 13:45:39;;;;;;;;;;;24.90;51.90;;;;;;5035462;28;19917;-78
2022/03/12 13:48:05;;;;;;;;;;;21.70;54.30;;;;;;5036846;28;19915;-78
2022/03/12 13:50:31;;;;;;;;;;;24.60;52.90;;;;;;5036658;28;19963;-78
2022/03/12 13:52:58;;;;;;;;;;;24.90;51.10;;;;;;5036779;28;19992;-78
2022/03/12 13:55:25;;;;;;;;;;;28.00;49.70;;;;;;5036511;28;19910;-77
2022/03/12 13:57:56;;;;;;;;;;;22.90;51.50;;;;;;5036790;28;19913;-77
2022/03/12 14:00:22;;;;;;;;;;;20.30;55.40;;;;;;5036462;28;19913;-77
2022/03/12 14:02:51;;;;;;;;;;;18.50;57.60;;;;;;5036834;28;19913;-77
2022/03/12 14:05:27;;;;;;;;;;;19.60;58.80;;;;;;5036506;28;20007;-77
2022/03/12 14:07:54;;;;;;;;;;;19.10;59.10;;;;;;5036388;28;19916;-77
2022/03/12 14:10:29;;;;;;;;;;;19.70;59.60;;;;;;5036307;28;19909;-77
2022/03/12 14:13:01;;;;;;;;;;;21.00;57.70;;;;;;5036599;28;19909;-77
2022/03/12 14:15:29;;;;;;;;;;;23.70;53.10;;;;;;5036353;28;19920;-76
2022/03/12 14:17:56;;;;;;;;;;;18.90;58.70;;;;;;5036114;28;20361;-77
2022/03/12 14:20:25;;;;;;;;;;;19.80;57.50;;;;;;5036108;28;20007;-77
2022/03/12 14:22:52;;;;;;;;;;;17.70;59.80;;;;;;5036000;28;19952;-77
2022/03/12 14:25:31;;;;;;;;;;;19.60;60.00;;;;;;5035900;28;20439;-76
2022/03/12 14:27:57;;;;;;;;;;;20.30;56.90;;;;;;5034731;28;20315;-77